Time;durP1;ratioP1;P1;durP2;ratioP2;P2;SDS_P1;SDS_P2;PMS_P1;PMS_P2;Temp;Humidity;BMP_temperature;BMP_pressure;BME280_temperature;BME280_humidity;BME280_pressure;Samples;Min_cycle;Max_cycle;Signal;HPM_P1;HPM_P2
2021/04/22 00:01:47;;;;;;;28.38;21.23;;;;;;;;;;5052945;28;20201;-65
2021/04/22 00:04:13;;;;;;;27.15;21.63;;;;;;;;;;5057068;28;20657;-66
2021/04/22 00:06:40;;;;;;;31.95;22.80;;;;;;;;;;5056557;28;20279;-65
2021/04/22 00:09:10;;;;;;;23.48;19.70;;;;;;;;;;5056877;28;20263;-65
2021/04/22 00:11:37;;;;;;;22.38;18.80;;;;;;;;;;5055696;28;20208;-64
2021/04/22 00:14:05;;;;;;;30.75;23.08;;;;;;;;;;5056601;28;20652;-64
2021/04/22 00:16:32;;;;;;;33.33;23.75;;;;;;;;;;5056584;28;20192;-65
2021/04/22 00:18:59;;;;;;;28.15;23.10;;;;;;;;;;5056562;28;20193;-65
2021/04/22 00:21:25;;;;;;;32.88;22.70;;;;;;;;;;5056365;28;20652;-65
2021/04/22 00:23:52;;;;;;;30.33;24.13;;;;;;;;;;5056333;28;20671;-65
2021/04/22 00:26:19;;;;;;;31.52;24.20;;;;;;;;;;5056302;28;20204;-66
2021/04/22 00:28:45;;;;;;;36.55;25.50;;;;;;;;;;5056127;28;20224;-66
2021/04/22 00:31:12;;;;;;;31.60;25.30;;;;;;;;;;5056645;28;20211;-66
2021/04/22 00:33:38;;;;;;;27.45;22.60;;;;;;;;;;5056245;28;20196;-66
2021/04/22 00:36:05;;;;;;;35.33;26.05;;;;;;;;;;5056506;28;20648;-65
2021/04/22 00:38:32;;;;;;;34.10;24.40;;;;;;;;;;5056448;28;20606;-65
2021/04/22 00:40:59;;;;;;;30.35;24.25;;;;;;;;;;5055873;28;20208;-65
2021/04/22 00:43:26;;;;;;;27.73;23.42;;;;;;;;;;5037928;28;20205;-65
2021/04/22 00:45:52;;;;;;;28.15;22.77;;;;;;;;;;5055174;28;20287;-65
2021/04/22 00:48:21;;;;;;;28.77;22.27;;;;;;;;;;5056125;28;20266;-66
2021/04/22 00:50:48;;;;;;;28.80;22.55;;;;;;;;;;5055435;28;20205;-66
2021/04/22 00:53:15;;;;;;;31.38;22.63;;;;;;;;;;5055547;28;20671;-66
2021/04/22 00:55:41;;;;;;;26.58;20.88;;;;;;;;;;5055257;28;20215;-66
2021/04/22 00:58:08;;;;;;;29.83;23.23;;;;;;;;;;5055708;28;20193;-66
2021/04/22 01:00:39;;;;;;;25.92;22.25;;;;;;;;;;5055878;28;20201;-66
2021/04/22 01:03:06;;;;;;;28.42;23.50;;;;;;;;;;5055862;28;20205;-66
2021/04/22 01:05:40;;;;;;;30.73;23.55;;;;;;;;;;5055801;28;20204;-66
2021/04/22 01:08:07;;;;;;;33.58;22.30;;;;;;;;;;5055530;28;20204;-66
2021/04/22 01:10:34;;;;;;;27.27;23.40;;;;;;;;;;5054861;28;20207;-66
2021/04/22 01:13:01;;;;;;;29.75;23.48;;;;;;;;;;5054370;28;20556;-66
2021/04/22 01:15:28;;;;;;;27.50;23.30;;;;;;;;;;5054683;28;20208;-66
2021/04/22 01:17:56;;;;;;;26.45;23.10;;;;;;;;;;5054942;28;20744;-66
2021/04/22 01:20:24;;;;;;;27.83;22.55;;;;;;;;;;5055278;28;20196;-66
2021/04/22 01:22:51;;;;;;;30.52;22.35;;;;;;;;;;5055130;28;20200;-66
2021/04/22 01:25:19;;;;;;;27.25;21.40;;;;;;;;;;5054559;28;20699;-66
2021/04/22 01:27:46;;;;;;;26.25;20.98;;;;;;;;;;5055316;28;20691;-66
2021/04/22 01:30:30;;;;;;;30.23;22.40;;;;;;;;;;5055326;28;20660;-66
2021/04/22 01:32:57;;;;;;;32.00;22.88;;;;;;;;;;5055077;28;20197;-66
2021/04/22 01:35:26;;;;;;;26.13;21.50;;;;;;;;;;5055140;28;20558;-66
2021/04/22 01:37:53;;;;;;;26.90;20.23;;;;;;;;;;5054376;28;20565;-66
2021/04/22 01:40:21;;;;;;;31.33;22.00;;;;;;;;;;5054795;28;20211;-66
2021/04/22 01:42:48;;;;;;;26.15;18.80;;;;;;;;;;5054818;28;20235;-66
2021/04/22 01:45:14;;;;;;;26.48;18.77;;;;;;;;;;5036784;28;20204;-66
2021/04/22 01:47:41;;;;;;;22.52;18.48;;;;;;;;;;5036736;28;20212;-66
2021/04/22 01:50:09;;;;;;;29.20;20.02;;;;;;;;;;5054887;28;20208;-66
2021/04/22 01:52:36;;;;;;;26.27;19.77;;;;;;;;;;5054837;28;20188;-66
2021/04/22 01:55:03;;;;;;;27.63;20.55;;;;;;;;;;5053981;28;20206;-66
2021/04/22 01:57:30;;;;;;;26.90;20.33;;;;;;;;;;5054620;28;20195;-66
2021/04/22 01:59:59;;;;;;;26.67;19.02;;;;;;;;;;5054527;28;20196;-66
2021/04/22 02:02:26;;;;;;;25.58;20.17;;;;;;;;;;5054754;28;20201;-66
2021/04/22 02:04:52;;;;;;;28.67;18.80;;;;;;;;;;5054408;28;20196;-66
2021/04/22 02:07:19;;;;;;;22.92;18.23;;;;;;;;;;5054701;28;20652;-66
2021/04/22 02:09:46;;;;;;;26.02;18.63;;;;;;;;;;5054339;28;20212;-66
2021/04/22 02:12:13;;;;;;;25.80;18.88;;;;;;;;;;5054262;28;20184;-66
2021/04/22 02:14:39;;;;;;;23.80;17.00;;;;;;;;;;5054249;28;20193;-66
2021/04/22 02:17:06;;;;;;;24.10;18.52;;;;;;;;;;5054451;28;20204;-66
2021/04/22 02:19:33;;;;;;;26.83;18.67;;;;;;;;;;5054470;28;20212;-66
2021/04/22 02:21:59;;;;;;;24.70;18.45;;;;;;;;;;5054369;28;20205;-66
2021/04/22 02:24:26;;;;;;;24.25;18.50;;;;;;;;;;5054006;28;20197;-66
2021/04/22 02:26:53;;;;;;;27.65;19.15;;;;;;;;;;5054128;28;20197;-66
2021/04/22 02:29:19;;;;;;;19.23;16.25;;;;;;;;;;5053925;28;20345;-66
2021/04/22 02:31:46;;;;;;;34.13;17.40;;;;;;;;;;5053885;28;20196;-66
2021/04/22 02:34:13;;;;;;;23.90;17.27;;;;;;;;;;5053855;28;20202;-65
2021/04/22 02:36:39;;;;;;;24.75;16.50;;;;;;;;;;5054041;28;20280;-66
2021/04/22 02:39:06;;;;;;;25.83;17.92;;;;;;;;;;5054140;28;20208;-65
2021/04/22 02:41:33;;;;;;;21.55;15.93;;;;;;;;;;5053428;28;20578;-66
2021/04/22 02:44:00;;;;;;;27.10;17.70;;;;;;;;;;5035785;28;20206;-66
2021/04/22 02:46:27;;;;;;;22.70;17.13;;;;;;;;;;5054003;28;20201;-66
2021/04/22 02:48:53;;;;;;;22.35;15.35;;;;;;;;;;5053458;28;20546;-66
2021/04/22 02:51:20;;;;;;;21.77;16.10;;;;;;;;;;5053318;28;20200;-66
2021/04/22 02:53:46;;;;;;;22.63;15.48;;;;;;;;;;5053725;28;20676;-66
2021/04/22 02:56:13;;;;;;;27.52;16.05;;;;;;;;;;5035473;28;20597;-66
2021/04/22 02:58:40;;;;;;;25.23;15.55;;;;;;;;;;5053327;28;20203;-66
2021/04/22 03:01:06;;;;;;;23.05;15.52;;;;;;;;;;5053010;28;20189;-66
2021/04/22 03:03:33;;;;;;;27.65;16.63;;;;;;;;;;5052798;28;20188;-66
2021/04/22 03:06:00;;;;;;;23.40;17.00;;;;;;;;;;5052854;28;20257;-66
2021/04/22 03:08:26;;;;;;;28.52;16.05;;;;;;;;;;5052873;28;20212;-65
2021/04/22 03:10:53;;;;;;;21.58;15.38;;;;;;;;;;5053019;28;20201;-66
2021/04/22 03:13:20;;;;;;;26.42;15.57;;;;;;;;;;5052926;28;20189;-66
2021/04/22 03:15:46;;;;;;;20.33;14.65;;;;;;;;;;5052858;28;20196;-66
2021/04/22 03:18:13;;;;;;;22.50;14.50;;;;;;;;;;5053562;28;20204;-66
2021/04/22 03:20:40;;;;;;;26.42;15.32;;;;;;;;;;5053175;28;20200;-65
2021/04/22 03:23:07;;;;;;;18.75;14.40;;;;;;;;;;5053027;28;20204;-66
2021/04/22 03:25:34;;;;;;;21.20;14.30;;;;;;;;;;5053061;28;20279;-66
2021/04/22 03:28:01;;;;;;;19.65;12.88;;;;;;;;;;5053063;28;20196;-66
2021/04/22 03:30:30;;;;;;;21.17;14.65;;;;;;;;;;5053023;28;20192;-67
2021/04/22 03:32:57;;;;;;;16.50;12.23;;;;;;;;;;5053395;28;20200;-66
2021/04/22 03:35:24;;;;;;;22.48;14.82;;;;;;;;;;5053269;28;20204;-66
2021/04/22 03:37:50;;;;;;;21.85;12.93;;;;;;;;;;5055072;28;20589;-66
2021/04/22 03:40:18;;;;;;;22.10;12.70;;;;;;;;;;5056293;28;20227;-66
2021/04/22 03:42:45;;;;;;;20.55;13.75;;;;;;;;;;5057004;28;20232;-66
2021/04/22 03:45:12;;;;;;;22.08;14.52;;;;;;;;;;5056330;28;20287;-66
2021/04/22 03:47:39;;;;;;;21.30;13.38;;;;;;;;;;5057089;28;20191;-66
2021/04/22 03:50:07;;;;;;;16.30;13.13;;;;;;;;;;5057243;28;20303;-65
2021/04/22 03:52:34;;;;;;;17.42;11.93;;;;;;;;;;5057394;28;20199;-65
2021/04/22 03:55:00;;;;;;;23.83;11.82;;;;;;;;;;5057295;28;20651;-65
2021/04/22 03:57:27;;;;;;;23.77;11.93;;;;;;;;;;5057024;28;20291;-67
2021/04/22 03:59:54;;;;;;;15.13;11.73;;;;;;;;;;5056751;28;20211;-66
2021/04/22 04:02:20;;;;;;;17.23;11.18;;;;;;;;;;5056601;28;20207;-66
2021/04/22 04:04:47;;;;;;;18.92;11.82;;;;;;;;;;5056467;28;20219;-66
2021/04/22 04:07:14;;;;;;;19.20;11.65;;;;;;;;;;5056676;28;20185;-66
2021/04/22 04:09:40;;;;;;;16.92;10.70;;;;;;;;;;5055673;28;20212;-66
2021/04/22 04:12:07;;;;;;;20.25;10.82;;;;;;;;;;5056570;28;20193;-66
2021/04/22 04:14:35;;;;;;;24.73;12.80;;;;;;;;;;5038943;28;20599;-66
2021/04/22 04:17:02;;;;;;;32.28;11.75;;;;;;;;;;5055528;28;20196;-66
2021/04/22 04:19:29;;;;;;;21.77;11.25;;;;;;;;;;5056458;28;20204;-66
2021/04/22 04:21:56;;;;;;;23.88;12.35;;;;;;;;;;5056053;28;20207;-66
2021/04/22 04:24:22;;;;;;;27.65;12.45;;;;;;;;;;5056262;28;20195;-66
2021/04/22 04:26:49;;;;;;;17.15;11.00;;;;;;;;;;5056446;28;20239;-66
2021/04/22 04:29:15;;;;;;;22.10;10.68;;;;;;;;;;5056323;28;20585;-66
2021/04/22 04:31:42;;;;;;;35.75;11.35;;;;;;;;;;5056771;28;20204;-66
2021/04/22 04:34:09;;;;;;;13.00;10.43;;;;;;;;;;5060344;28;20201;-67
2021/04/22 04:36:35;;;;;;;17.88;10.70;;;;;;;;;;5037828;28;20231;-66
2021/04/22 04:39:02;;;;;;;20.15;10.93;;;;;;;;;;5055748;28;20208;-66
2021/04/22 04:41:29;;;;;;;17.05;10.63;;;;;;;;;;5055779;28;20316;-64
2021/04/22 04:43:56;;;;;;;25.60;10.13;;;;;;;;;;5056199;28;20295;-66
2021/04/22 04:46:23;;;;;;;19.27;9.45;;;;;;;;;;5055892;28;20246;-66
2021/04/22 04:48:50;;;;;;;17.73;9.35;;;;;;;;;;5055693;28;20227;-66
2021/04/22 04:51:16;;;;;;;23.73;9.07;;;;;;;;;;5055780;28;20196;-66
2021/04/22 04:53:44;;;;;;;19.17;9.80;;;;;;;;;;5055726;28;20192;-66
2021/04/22 04:56:11;;;;;;;11.38;9.40;;;;;;;;;;5055601;28;20208;-66
2021/04/22 04:58:37;;;;;;;18.05;8.60;;;;;;;;;;5055797;28;20565;-66
2021/04/22 05:01:04;;;;;;;15.30;8.50;;;;;;;;;;5056216;28;20205;-66
2021/04/22 05:03:31;;;;;;;13.52;7.18;;;;;;;;;;5055646;28;20204;-66
2021/04/22 05:05:57;;;;;;;14.88;7.45;;;;;;;;;;5055489;28;20193;-66
2021/04/22 05:08:24;;;;;;;10.90;6.35;;;;;;;;;;5055524;28;20672;-66
2021/04/22 05:10:51;;;;;;;14.70;6.90;;;;;;;;;;5055916;28;20204;-66
2021/04/22 05:13:17;;;;;;;13.80;7.32;;;;;;;;;;5055648;28;20189;-65
2021/04/22 05:15:44;;;;;;;8.35;5.00;;;;;;;;;;5055355;28;20208;-66
2021/04/22 05:18:11;;;;;;;12.90;6.07;;;;;;;;;;5055583;28;20211;-66
2021/04/22 05:20:37;;;;;;;13.25;6.20;;;;;;;;;;5055455;28;20279;-66
2021/04/22 05:23:07;;;;;;;9.45;5.90;;;;;;;;;;5055976;28;20181;-66
2021/04/22 05:25:34;;;;;;;13.15;6.00;;;;;;;;;;5055306;28;20200;-66
2021/04/22 05:28:01;;;;;;;18.05;7.38;;;;;;;;;;5055118;28;20208;-66
2021/04/22 05:30:27;;;;;;;14.90;6.63;;;;;;;;;;5037245;28;20229;-66
2021/04/22 05:32:54;;;;;;;12.88;5.90;;;;;;;;;;5055109;28;20254;-65
2021/04/22 05:35:21;;;;;;;11.38;4.85;;;;;;;;;;5055349;28;20287;-66
2021/04/22 05:37:48;;;;;;;13.60;5.13;;;;;;;;;;5055108;28;20645;-66
2021/04/22 05:40:14;;;;;;;13.20;5.63;;;;;;;;;;5055110;28;20243;-66
2021/04/22 05:42:41;;;;;;;10.50;5.40;;;;;;;;;;5055040;28;20236;-66
2021/04/22 05:45:08;;;;;;;16.33;5.28;;;;;;;;;;5054869;28;20276;-65
2021/04/22 05:47:35;;;;;;;10.52;4.38;;;;;;;;;;5054932;28;20202;-66
2021/04/22 05:50:01;;;;;;;10.45;4.15;;;;;;;;;;5054761;28;20671;-66
2021/04/22 05:52:28;;;;;;;10.25;3.85;;;;;;;;;;5054797;28;20199;-66
2021/04/22 05:54:55;;;;;;;10.88;4.68;;;;;;;;;;5054671;28;20208;-66
2021/04/22 05:57:22;;;;;;;9.98;5.15;;;;;;;;;;5054989;28;20195;-64
2021/04/22 05:59:48;;;;;;;11.40;4.85;;;;;;;;;;5055040;28;20210;-63
2021/04/22 06:02:15;;;;;;;14.65;4.50;;;;;;;;;;5054420;28;20228;-63
2021/04/22 06:04:42;;;;;;;12.77;4.97;;;;;;;;;;5054684;28;20215;-63
2021/04/22 06:07:08;;;;;;;8.35;4.05;;;;;;;;;;5036686;28;20223;-64
2021/04/22 06:09:35;;;;;;;8.60;4.38;;;;;;;;;;5054389;28;20223;-64
2021/04/22 06:12:05;;;;;;;13.07;4.15;;;;;;;;;;5054879;28;20192;-64
2021/04/22 06:14:31;;;;;;;8.75;4.13;;;;;;;;;;5054126;28;20208;-64
2021/04/22 06:16:58;;;;;;;6.18;3.90;;;;;;;;;;5036719;28;20215;-64
2021/04/22 06:19:25;;;;;;;22.27;8.57;;;;;;;;;;5054361;28;20215;-64
2021/04/22 06:21:51;;;;;;;21.52;6.47;;;;;;;;;;5054342;28;20223;-64
2021/04/22 06:24:18;;;;;;;5.82;3.40;;;;;;;;;;5054138;28;20223;-64
2021/04/22 06:26:45;;;;;;;12.50;6.93;;;;;;;;;;5054013;28;20185;-64
2021/04/22 06:29:12;;;;;;;7.72;4.50;;;;;;;;;;5054105;28;20196;-64
2021/04/22 06:31:38;;;;;;;11.82;3.95;;;;;;;;;;5036082;28;20659;-64
2021/04/22 06:34:05;;;;;;;15.50;4.75;;;;;;;;;;5054055;28;20275;-64
2021/04/22 06:36:32;;;;;;;7.03;3.47;;;;;;;;;;5054039;28;20232;-63
2021/04/22 06:38:59;;;;;;;6.30;2.97;;;;;;;;;;5054147;28;20220;-61
2021/04/22 06:41:25;;;;;;;9.82;3.70;;;;;;;;;;5053760;28;20244;-60
2021/04/22 06:43:52;;;;;;;9.40;4.75;;;;;;;;;;5054245;28;20185;-61
2021/04/22 06:46:19;;;;;;;12.27;4.05;;;;;;;;;;5053898;28;20216;-62
2021/04/22 06:48:46;;;;;;;7.60;3.75;;;;;;;;;;5053843;28;20562;-63
2021/04/22 06:51:12;;;;;;;9.07;3.67;;;;;;;;;;5053760;28;20205;-63
2021/04/22 06:53:39;;;;;;;5.45;3.42;;;;;;;;;;5053586;28;20212;-64
2021/04/22 06:56:06;;;;;;;5.03;3.17;;;;;;;;;;5036091;28;20211;-64
2021/04/22 06:58:33;;;;;;;12.48;3.55;;;;;;;;;;5053534;28;20188;-65
2021/04/22 07:00:59;;;;;;;8.13;4.18;;;;;;;;;;5053895;28;20188;-66
2021/04/22 07:03:26;;;;;;;19.17;5.38;;;;;;;;;;5053582;28;20189;-66
2021/04/22 07:05:53;;;;;;;11.93;4.10;;;;;;;;;;5054349;28;20207;-66
2021/04/22 07:08:19;;;;;;;13.23;3.58;;;;;;;;;;5053467;28;20189;-66
2021/04/22 07:10:46;;;;;;;11.82;4.85;;;;;;;;;;5053645;28;20203;-66
2021/04/22 07:13:13;;;;;;;9.18;3.95;;;;;;;;;;5034826;28;20306;-66
2021/04/22 07:15:39;;;;;;;9.38;4.05;;;;;;;;;;5053636;28;20216;-66
2021/04/22 07:18:06;;;;;;;22.40;5.82;;;;;;;;;;5036495;28;20255;-66
2021/04/22 07:20:33;;;;;;;8.05;3.38;;;;;;;;;;5053603;28;20624;-66
2021/04/22 07:23:00;;;;;;;10.00;3.45;;;;;;;;;;5053274;28;20188;-66
2021/04/22 07:25:29;;;;;;;11.32;4.15;;;;;;;;;;5053501;28;20243;-66
2021/04/22 07:27:56;;;;;;;10.60;4.47;;;;;;;;;;5053057;28;20208;-66
2021/04/22 07:30:24;;;;;;;16.73;4.93;;;;;;;;;;5054090;28;20197;-66
2021/04/22 07:32:51;;;;;;;11.93;3.20;;;;;;;;;;5053289;28;20215;-66
2021/04/22 07:35:19;;;;;;;16.58;4.28;;;;;;;;;;5053236;28;20223;-66
2021/04/22 07:37:46;;;;;;;8.40;3.42;;;;;;;;;;5053381;28;20193;-67
2021/04/22 07:40:15;;;;;;;12.20;5.25;;;;;;;;;;5053075;28;20683;-66
2021/04/22 07:42:42;;;;;;;13.85;3.90;;;;;;;;;;5053683;28;20353;-66
2021/04/22 07:45:09;;;;;;;16.98;4.70;;;;;;;;;;5053359;28;20279;-66
2021/04/22 07:47:36;;;;;;;7.55;3.85;;;;;;;;;;5053443;28;20712;-66
2021/04/22 07:50:05;;;;;;;6.85;3.20;;;;;;;;;;5053215;28;20565;-67
2021/04/22 07:52:32;;;;;;;13.57;4.15;;;;;;;;;;5053127;28;20275;-66
2021/04/22 07:54:59;;;;;;;7.22;3.53;;;;;;;;;;5053254;28;20201;-66
2021/04/22 07:57:26;;;;;;;9.05;4.13;;;;;;;;;;5053372;28;20197;-66
2021/04/22 07:59:54;;;;;;;10.35;3.80;;;;;;;;;;5053369;28;20220;-66
2021/04/22 08:02:21;;;;;;;9.80;4.15;;;;;;;;;;5054738;28;20204;-64
2021/04/22 08:04:48;;;;;;;14.65;3.78;;;;;;;;;;5054335;28;20568;-64
2021/04/22 08:07:14;;;;;;;12.90;4.40;;;;;;;;;;5053611;28;20284;-62
2021/04/22 08:09:41;;;;;;;18.27;3.75;;;;;;;;;;5053784;28;20208;-64
2021/04/22 08:12:08;;;;;;;11.60;4.03;;;;;;;;;;5053566;28;20189;-63
2021/04/22 08:14:34;;;;;;;10.38;3.40;;;;;;;;;;5053834;28;20181;-64
2021/04/22 08:17:01;;;;;;;10.63;4.28;;;;;;;;;;5035860;28;20204;-64
2021/04/22 08:19:29;;;;;;;24.23;6.05;;;;;;;;;;5053487;28;20247;-64
2021/04/22 08:21:55;;;;;;;5.18;3.95;;;;;;;;;;5053112;28;20205;-64
2021/04/22 08:24:22;;;;;;;47.20;6.43;;;;;;;;;;5056406;28;20200;-63
2021/04/22 08:26:49;;;;;;;19.17;5.00;;;;;;;;;;5057124;28;20203;-64
2021/04/22 08:29:15;;;;;;;21.33;4.75;;;;;;;;;;5057379;28;20199;-63
2021/04/22 08:31:42;;;;;;;7.45;2.47;;;;;;;;;;5059367;28;20200;-65
2021/04/22 08:34:09;;;;;;;13.27;3.95;;;;;;;;;;5058650;28;20193;-65
2021/04/22 08:36:36;;;;;;;17.38;5.65;;;;;;;;;;5043075;28;20660;-65
2021/04/22 08:39:07;;;;;;;10.02;3.90;;;;;;;;;;5057091;28;20665;-65
2021/04/22 08:41:34;;;;;;;10.85;4.63;;;;;;;;;;5056876;28;20307;-65
2021/04/22 08:44:02;;;;;;;14.43;4.13;;;;;;;;;;5055564;28;20201;-65
2021/04/22 08:46:29;;;;;;;14.23;3.92;;;;;;;;;;5055656;28;20205;-65
2021/04/22 08:48:56;;;;;;;9.98;4.95;;;;;;;;;;5041964;28;20564;-65
2021/04/22 08:51:24;;;;;;;15.88;4.63;;;;;;;;;;5022398;28;20204;-65
2021/04/22 08:53:50;;;;;;;15.45;4.90;;;;;;;;;;5055727;28;20188;-65
2021/04/22 08:56:18;;;;;;;11.70;4.63;;;;;;;;;;5056861;28;20331;-65
2021/04/22 08:58:45;;;;;;;10.82;4.90;;;;;;;;;;5039257;28;20638;-66
2021/04/22 09:01:13;;;;;;;12.02;3.75;;;;;;;;;;5058190;28;20203;-66
2021/04/22 09:03:41;;;;;;;10.27;4.60;;;;;;;;;;5056816;28;20197;-66
2021/04/22 09:06:08;;;;;;;11.27;4.13;;;;;;;;;;5056768;28;20204;-65
2021/04/22 09:08:38;;;;;;;12.45;4.57;;;;;;;;;;5056750;28;20207;-65
2021/04/22 09:11:06;;;;;;;14.57;4.30;;;;;;;;;;5056161;28;20235;-65
2021/04/22 09:13:34;;;;;;;13.65;5.57;;;;;;;;;;5039444;28;20209;-64
2021/04/22 09:16:11;;;;;;;14.15;4.68;;;;;;;;;;5056563;28;20198;-64
2021/04/22 09:18:39;;;;;;;10.00;4.15;;;;;;;;;;5057373;28;20173;-64
2021/04/22 09:21:06;;;;;;;14.30;4.35;;;;;;;;;;5057326;28;20212;-66
2021/04/22 09:23:33;;;;;;;17.20;4.45;;;;;;;;;;5057554;28;20200;-65
2021/04/22 09:26:04;;;;;;;11.93;4.40;;;;;;;;;;5062291;28;20200;-65
2021/04/22 09:28:35;;;;;;;10.07;4.72;;;;;;;;;;5066250;28;20200;-65
2021/04/22 09:31:01;;;;;;;15.85;4.65;;;;;;;;;;5062714;28;20200;-65
2021/04/22 09:33:29;;;;;;;14.65;3.63;;;;;;;;;;5056257;28;20209;-65
2021/04/22 09:36:05;;;;;;;29.17;3.92;;;;;;;;;;5055298;28;20205;-65
2021/04/22 09:38:31;;;;;;;15.95;4.50;;;;;;;;;;5056659;28;20620;-65
2021/04/22 09:41:13;;;;;;;10.10;4.45;;;;;;;;;;5044025;28;20283;-65
2021/04/22 09:43:40;;;;;;;14.43;4.45;;;;;;;;;;5054835;28;20197;-64
2021/04/22 09:46:20;;;;;;;15.80;5.57;;;;;;;;;;5055916;28;20614;-66
2021/04/22 09:48:47;;;;;;;11.65;4.43;;;;;;;;;;5055678;28;20193;-65
2021/04/22 09:51:24;;;;;;;14.95;6.50;;;;;;;;;;5056952;28;20197;-64
2021/04/22 09:54:01;;;;;;;7.97;4.20;;;;;;;;;;5057221;28;20275;-64
2021/04/22 09:56:38;;;;;;;8.18;4.18;;;;;;;;;;5056719;28;20291;-64
2021/04/22 09:59:06;;;;;;;11.15;4.20;;;;;;;;;;5055943;28;20215;-65
2021/04/22 10:01:32;;;;;;;11.90;4.05;;;;;;;;;;5055416;28;20639;-65
2021/04/22 10:03:59;;;;;;;14.38;4.30;;;;;;;;;;5040610;28;20213;-64
2021/04/22 10:06:36;;;;;;;17.88;4.60;;;;;;;;;;5054488;28;20209;-65
2021/04/22 10:09:03;;;;;;;13.60;5.72;;;;;;;;;;5054244;28;20279;-65
2021/04/22 10:11:40;;;;;;;9.10;3.97;;;;;;;;;;5054300;28;20204;-64
2021/04/22 10:14:06;;;;;;;10.80;3.85;;;;;;;;;;5054466;28;20207;-64
2021/04/22 10:16:34;;;;;;;19.27;5.38;;;;;;;;;;5054939;28;20196;-63
2021/04/22 10:19:01;;;;;;;11.63;4.32;;;;;;;;;;5054131;28;20204;-64
2021/04/22 10:21:28;;;;;;;15.13;5.40;;;;;;;;;;5054666;28;20197;-64
2021/04/22 10:24:04;;;;;;;15.93;4.95;;;;;;;;;;5054935;28;20644;-65
2021/04/22 10:26:31;;;;;;;9.50;4.20;;;;;;;;;;5037257;28;20287;-65
2021/04/22 10:28:58;;;;;;;9.43;3.88;;;;;;;;;;5037822;28;20702;-66
2021/04/22 10:31:27;;;;;;;7.22;4.40;;;;;;;;;;5055617;28;20193;-64
2021/04/22 10:33:54;;;;;;;12.65;5.70;;;;;;;;;;5055525;28;20532;-67
2021/04/22 10:36:21;;;;;;;10.48;4.63;;;;;;;;;;5056149;28;20702;-65
2021/04/22 10:38:52;;;;;;;15.68;4.25;;;;;;;;;;5055651;28;20619;-66
2021/04/22 10:41:20;;;;;;;9.82;5.00;;;;;;;;;;5055342;28;20252;-66
2021/04/22 10:43:47;;;;;;;15.20;4.63;;;;;;;;;;5053796;28;20225;-66
2021/04/22 10:46:16;;;;;;;13.90;4.47;;;;;;;;;;5055045;28;20212;-65
2021/04/22 10:48:42;;;;;;;7.53;3.53;;;;;;;;;;5052842;28;20625;-66
2021/04/22 10:51:09;;;;;;;15.48;5.40;;;;;;;;;;5053098;28;20220;-66
2021/04/22 10:53:40;;;;;;;9.02;5.28;;;;;;;;;;5053672;28;20254;-64
2021/04/22 10:56:07;;;;;;;9.50;4.22;;;;;;;;;;5055488;28;20201;-65
2021/04/22 10:58:37;;;;;;;8.32;4.25;;;;;;;;;;5036848;28;20204;-66
2021/04/22 11:01:08;;;;;;;12.45;4.20;;;;;;;;;;5054566;28;20220;-65
2021/04/22 11:03:43;;;;;;;7.53;3.70;;;;;;;;;;5055518;28;20196;-66
2021/04/22 11:06:11;;;;;;;12.88;4.85;;;;;;;;;;5054454;28;20616;-66
2021/04/22 11:08:40;;;;;;;15.32;5.15;;;;;;;;;;5054517;28;20199;-65
2021/04/22 11:11:26;;;;;;;11.43;4.50;;;;;;;;;;5035820;28;20215;-66
2021/04/22 11:14:22;;;;;;;9.30;4.05;;;;;;;;;;5035888;28;20200;-66
2021/04/22 11:16:54;;;;;;;10.97;3.60;;;;;;;;;;5021369;28;20215;-65
2021/04/22 11:19:38;;;;;;;9.00;3.70;;;;;;;;;;5054818;28;20593;-65
2021/04/22 11:22:13;;;;;;;8.63;4.33;;;;;;;;;;5053626;28;21153;-65
2021/04/22 11:24:42;;;;;;;10.50;4.97;;;;;;;;;;5054242;28;20559;-65
2021/04/22 11:27:14;;;;;;;11.67;3.80;;;;;;;;;;5054049;28;21145;-65
2021/04/22 11:29:44;;;;;;;8.20;4.23;;;;;;;;;;5053789;28;20602;-65
2021/04/22 11:32:21;;;;;;;8.17;3.60;;;;;;;;;;5036670;28;20605;-64
2021/04/22 11:34:48;;;;;;;16.20;4.80;;;;;;;;;;5053844;28;20605;-65
2021/04/22 11:37:20;;;;;;;13.57;5.57;;;;;;;;;;5036478;28;20650;-64
2021/04/22 11:39:47;;;;;;;9.80;3.97;;;;;;;;;;5053376;28;20623;-66
2021/04/22 11:42:15;;;;;;;8.23;4.90;;;;;;;;;;5053182;28;20637;-65
2021/04/22 11:44:48;;;;;;;5.63;4.10;;;;;;;;;;5053538;28;20944;-65
2021/04/22 11:47:16;;;;;;;20.53;3.83;;;;;;;;;;5053609;28;21001;-67
2021/04/22 11:49:43;;;;;;;9.17;4.17;;;;;;;;;;5053471;28;20974;-66
2021/04/22 11:52:17;;;;;;;8.53;3.40;;;;;;;;;;5035679;28;20983;-65
2021/04/22 11:54:44;;;;;;;11.83;4.00;;;;;;;;;;5053605;28;20617;-64
2021/04/22 11:57:11;;;;;;;10.70;3.07;;;;;;;;;;5019762;28;20629;-64
2021/04/22 11:59:38;;;;;;;10.90;3.60;;;;;;;;;;5056349;28;20653;-67
2021/04/22 12:02:12;;;;;;;8.20;3.43;;;;;;;;;;5057077;28;20611;-64
2021/04/22 12:04:39;;;;;;;8.73;3.20;;;;;;;;;;5057592;28;21235;-67
2021/04/22 12:07:09;;;;;;;13.20;3.83;;;;;;;;;;5057411;28;20598;-65
2021/04/22 12:09:37;;;;;;;10.07;3.73;;;;;;;;;;5057265;28;20722;-65
2021/04/22 12:12:12;;;;;;;7.90;4.07;;;;;;;;;;5056708;28;20619;-65
2021/04/22 12:14:39;;;;;;;11.40;4.33;;;;;;;;;;5053026;28;21176;-65
2021/04/22 12:17:06;;;;;;;10.77;5.13;;;;;;;;;;5056509;28;20593;-65
2021/04/22 12:19:32;;;;;;;6.77;3.20;;;;;;;;;;5056424;28;20631;-65
2021/04/22 12:22:02;;;;;;;6.13;3.47;;;;;;;;;;5056350;28;20622;-65
2021/04/22 12:24:30;;;;;;;5.93;3.30;;;;;;;;;;5056497;28;20631;-66
2021/04/22 12:26:57;;;;;;;7.57;3.10;;;;;;;;;;5056372;28;20615;-66
2021/04/22 12:29:24;;;;;;;8.57;4.00;;;;;;;;;;5055915;28;20668;-64
2021/04/22 12:32:01;;;;;;;11.00;3.50;;;;;;;;;;5056501;28;20629;-65
2021/04/22 12:34:33;;;;;;;10.17;3.63;;;;;;;;;;5056489;28;20627;-65
2021/04/22 12:37:02;;;;;;;10.37;4.03;;;;;;;;;;5057437;28;20615;-64
2021/04/22 12:39:31;;;;;;;7.70;3.37;;;;;;;;;;5057162;28;21224;-65
2021/04/22 12:42:10;;;;;;;11.23;3.93;;;;;;;;;;5056098;28;20662;-66
2021/04/22 12:44:37;;;;;;;11.90;3.53;;;;;;;;;;5055676;28;20706;-65
2021/04/22 12:47:06;;;;;;;6.77;2.83;;;;;;;;;;5056509;28;20630;-65
2021/04/22 12:49:32;;;;;;;13.80;3.83;;;;;;;;;;5056662;28;20625;-65
2021/04/22 12:52:00;;;;;;;8.07;3.60;;;;;;;;;;5057087;28;20599;-64
2021/04/22 12:54:26;;;;;;;4.90;3.73;;;;;;;;;;5057342;28;21164;-64
2021/04/22 12:56:54;;;;;;;7.30;3.60;;;;;;;;;;5057956;28;20617;-64
2021/04/22 12:59:22;;;;;;;6.43;4.13;;;;;;;;;;5057787;28;20961;-64
2021/04/22 13:01:49;;;;;;;9.97;3.70;;;;;;;;;;5058350;28;20595;-65
2021/04/22 13:04:16;;;;;;;9.20;4.17;;;;;;;;;;5057722;28;21060;-65
2021/04/22 13:06:44;;;;;;;8.57;3.30;;;;;;;;;;5057396;28;21145;-64
2021/04/22 13:09:11;;;;;;;7.10;3.73;;;;;;;;;;5057551;28;21145;-65
2021/04/22 13:11:39;;;;;;;7.37;4.43;;;;;;;;;;5056013;28;20663;-64
2021/04/22 13:14:07;;;;;;;11.23;4.17;;;;;;;;;;5055889;28;20622;-64
2021/04/22 13:16:45;;;;;;;6.17;4.17;;;;;;;;;;5056418;28;20710;-65
2021/04/22 13:19:18;;;;;;;8.23;3.63;;;;;;;;;;5056142;28;20595;-65
2021/04/22 13:21:52;;;;;;;9.23;3.77;;;;;;;;;;5055863;28;20631;-65
2021/04/22 13:24:20;;;;;;;9.47;4.57;;;;;;;;;;5056249;28;20559;-65
2021/04/22 13:26:55;;;;;;;9.43;3.83;;;;;;;;;;5056522;28;20633;-65
2021/04/22 13:29:22;;;;;;;7.30;4.17;;;;;;;;;;5056457;28;21221;-65
2021/04/22 13:31:50;;;;;;;7.37;4.33;;;;;;;;;;5055645;28;20666;-65
2021/04/22 13:34:18;;;;;;;16.30;4.40;;;;;;;;;;5056147;28;20960;-65
2021/04/22 13:36:48;;;;;;;13.60;4.40;;;;;;;;;;5055887;28;21009;-66
2021/04/22 13:39:16;;;;;;;7.10;4.17;;;;;;;;;;5055395;28;20591;-66
2021/04/22 13:41:44;;;;;;;8.73;4.63;;;;;;;;;;5037562;28;20654;-64
2021/04/22 13:44:12;;;;;;;10.80;3.97;;;;;;;;;;5055481;28;21169;-65
2021/04/22 13:46:39;;;;;;;8.40;5.40;;;;;;;;;;5055114;28;20597;-64
2021/04/22 13:49:12;;;;;;;8.57;4.20;;;;;;;;;;5054802;28;20629;-64
2021/04/22 13:51:40;;;;;;;10.47;5.13;;;;;;;;;;5054330;28;20670;-64
2021/04/22 13:54:06;;;;;;;11.80;4.53;;;;;;;;;;5054910;28;20619;-65
2021/04/22 13:56:33;;;;;;;18.90;5.50;;;;;;;;;;5054693;28;21114;-65
2021/04/22 13:59:05;;;;;;;10.37;3.90;;;;;;;;;;5055094;28;21148;-64
2021/04/22 14:01:32;;;;;;;8.60;3.80;;;;;;;;;;5055513;28;20673;-64
2021/04/22 14:03:59;;;;;;;8.50;3.87;;;;;;;;;;5054815;28;20619;-65
2021/04/22 14:06:36;;;;;;;13.73;5.70;;;;;;;;;;5054993;28;20598;-66
2021/04/22 14:09:04;;;;;;;12.73;3.73;;;;;;;;;;5054661;28;20555;-65
2021/04/22 14:11:36;;;;;;;10.30;4.97;;;;;;;;;;5054494;28;20643;-65
2021/04/22 14:14:03;;;;;;;10.27;5.00;;;;;;;;;;5054349;28;21150;-64
2021/04/22 14:16:30;;;;;;;14.50;4.23;;;;;;;;;;5054281;28;21154;-65
2021/04/22 14:18:57;;;;;;;9.77;4.30;;;;;;;;;;5054844;28;20633;-65
2021/04/22 14:21:24;;;;;;;11.97;5.50;;;;;;;;;;5037208;28;21123;-66
2021/04/22 14:23:54;;;;;;;9.40;4.93;;;;;;;;;;5055578;28;20647;-67
2021/04/22 14:26:22;;;;;;;12.60;6.40;;;;;;;;;;5038180;28;21122;-64
2021/04/22 14:28:49;;;;;;;7.57;4.37;;;;;;;;;;5054655;28;20614;-63
2021/04/22 14:31:16;;;;;;;11.60;5.27;;;;;;;;;;5054676;28;21295;-64
2021/04/22 14:33:43;;;;;;;7.50;4.13;;;;;;;;;;5054746;28;20611;-66